sensor_id;sensor_type;location;lat;lon;timestamp;temperature;humidity
38265;DHT22;24062;47.480;8.768;2023-04-23T00:01:48;12.10;81.30
38265;DHT22;24062;47.480;8.768;2023-04-23T00:04:19;12.00;81.70
38265;DHT22;24062;47.480;8.768;2023-04-23T00:06:46;12.00;82.50
38265;DHT22;24062;47.480;8.768;2023-04-23T00:09:15;11.90;82.90
38265;DHT22;24062;47.480;8.768;2023-04-23T00:11:43;11.90;82.70
38265;DHT22;24062;47.480;8.768;2023-04-23T00:14:10;11.80;83.10
38265;DHT22;24062;47.480;8.768;2023-04-23T00:16:38;11.80;83.40
38265;DHT22;24062;47.480;8.768;2023-04-23T00:19:05;11.90;83.90
38265;DHT22;24062;47.480;8.768;2023-04-23T00:21:32;11.90;83.70
38265;DHT22;24062;47.480;8.768;2023-04-23T00:24:00;12.00;83.90
38265;DHT22;24062;47.480;8.768;2023-04-23T00:26:28;12.10;84.00
38265;DHT22;24062;47.480;8.768;2023-04-23T00:28:55;12.00;83.90
38265;DHT22;24062;47.480;8.768;2023-04-23T00:31:22;11.90;84.10
38265;DHT22;24062;47.480;8.768;2023-04-23T00:33:51;11.80;84.40
38265;DHT22;24062;47.480;8.768;2023-04-23T00:36:18;11.90;84.80
38265;DHT22;24062;47.480;8.768;2023-04-23T00:38:45;12.00;85.00
38265;DHT22;24062;47.480;8.768;2023-04-23T00:41:12;12.00;85.30
38265;DHT22;24062;47.480;8.768;2023-04-23T00:43:42;12.00;84.90
38265;DHT22;24062;47.480;8.768;2023-04-23T00:46:10;12.10;85.90
38265;DHT22;24062;47.480;8.768;2023-04-23T00:48:37;12.10;85.10
38265;DHT22;24062;47.480;8.768;2023-04-23T00:51:05;12.10;85.10
38265;DHT22;24062;47.480;8.768;2023-04-23T00:53:32;12.10;85.10
38265;DHT22;24062;47.480;8.768;2023-04-23T00:56:01;12.10;85.10
38265;DHT22;24062;47.480;8.768;2023-04-23T00:58:29;12.10;85.40
38265;DHT22;24062;47.480;8.768;2023-04-23T01:00:58;12.10;86.30
38265;DHT22;24062;47.480;8.768;2023-04-23T01:03:29;12.00;85.70
38265;DHT22;24062;47.480;8.768;2023-04-23T01:05:57;12.00;85.70
38265;DHT22;24062;47.480;8.768;2023-04-23T01:08:24;12.00;85.70
38265;DHT22;24062;47.480;8.768;2023-04-23T01:10:51;12.00;85.80
38265;DHT22;24062;47.480;8.768;2023-04-23T01:13:19;12.00;85.90
38265;DHT22;24062;47.480;8.768;2023-04-23T01:15:46;12.00;86.10
38265;DHT22;24062;47.480;8.768;2023-04-23T01:18:15;11.90;86.20
38265;DHT22;24062;47.480;8.768;2023-04-23T01:20:42;11.90;86.10
38265;DHT22;24062;47.480;8.768;2023-04-23T01:23:11;11.90;86.30
38265;DHT22;24062;47.480;8.768;2023-04-23T01:25:39;11.80;86.10
38265;DHT22;24062;47.480;8.768;2023-04-23T01:28:06;11.80;86.30
38265;DHT22;24062;47.480;8.768;2023-04-23T01:30:34;11.80;87.10
38265;DHT22;24062;47.480;8.768;2023-04-23T01:33:02;11.70;87.30
38265;DHT22;24062;47.480;8.768;2023-04-23T01:35:30;11.70;87.80
38265;DHT22;24062;47.480;8.768;2023-04-23T01:37:58;11.70;87.60
38265;DHT22;24062;47.480;8.768;2023-04-23T01:40:28;11.80;87.90
38265;DHT22;24062;47.480;8.768;2023-04-23T01:42:56;11.70;87.40
38265;DHT22;24062;47.480;8.768;2023-04-23T01:45:23;11.70;87.70
38265;DHT22;24062;47.480;8.768;2023-04-23T01:47:50;11.60;87.50
38265;DHT22;24062;47.480;8.768;2023-04-23T01:50:18;11.60;87.90
38265;DHT22;24062;47.480;8.768;2023-04-23T01:52:46;11.60;87.90
38265;DHT22;24062;47.480;8.768;2023-04-23T01:55:13;11.60;87.80
38265;DHT22;24062;47.480;8.768;2023-04-23T01:57:41;11.60;88.20
38265;DHT22;24062;47.480;8.768;2023-04-23T02:00:10;11.50;88.20
38265;DHT22;24062;47.480;8.768;2023-04-23T02:02:39;11.50;88.50
38265;DHT22;24062;47.480;8.768;2023-04-23T02:05:10;11.50;89.10
38265;DHT22;24062;47.480;8.768;2023-04-23T02:07:37;11.40;89.20
38265;DHT22;24062;47.480;8.768;2023-04-23T02:10:05;11.50;89.30
38265;DHT22;24062;47.480;8.768;2023-04-23T02:12:32;11.50;89.50
38265;DHT22;24062;47.480;8.768;2023-04-23T02:15:01;11.50;89.50
38265;DHT22;24062;47.480;8.768;2023-04-23T02:17:28;11.50;89.90
38265;DHT22;24062;47.480;8.768;2023-04-23T02:19:55;11.40;90.10
38265;DHT22;24062;47.480;8.768;2023-04-23T02:22:22;11.50;90.30
38265;DHT22;24062;47.480;8.768;2023-04-23T02:24:51;11.40;90.20
38265;DHT22;24062;47.480;8.768;2023-04-23T02:27:18;11.30;90.30
38265;DHT22;24062;47.480;8.768;2023-04-23T02:29:45;11.20;90.40
38265;DHT22;24062;47.480;8.768;2023-04-23T02:32:14;11.20;90.70
38265;DHT22;24062;47.480;8.768;2023-04-23T02:34:41;11.20;90.90
38265;DHT22;24062;47.480;8.768;2023-04-23T02:37:08;11.30;91.10
38265;DHT22;24062;47.480;8.768;2023-04-23T02:39:35;11.30;91.20
38265;DHT22;24062;47.480;8.768;2023-04-23T02:42:03;11.30;91.10
38265;DHT22;24062;47.480;8.768;2023-04-23T02:44:30;11.30;91.10
38265;DHT22;24062;47.480;8.768;2023-04-23T02:46:57;11.40;91.50
38265;DHT22;24062;47.480;8.768;2023-04-23T02:49:25;11.30;91.50
38265;DHT22;24062;47.480;8.768;2023-04-23T02:51:52;11.30;91.70
38265;DHT22;24062;47.480;8.768;2023-04-23T02:54:19;11.40;91.70
38265;DHT22;24062;47.480;8.768;2023-04-23T02:56:46;11.40;91.70
38265;DHT22;24062;47.480;8.768;2023-04-23T02:59:13;11.40;91.70
38265;DHT22;24062;47.480;8.768;2023-04-23T03:01:40;11.30;92.00
38265;DHT22;24062;47.480;8.768;2023-04-23T03:04:07;11.30;92.20
38265;DHT22;24062;47.480;8.768;2023-04-23T03:06:36;11.40;92.40
38265;DHT22;24062;47.480;8.768;2023-04-23T03:09:03;11.40;92.40
38265;DHT22;24062;47.480;8.768;2023-04-23T03:11:30;11.50;92.40
38265;DHT22;24062;47.480;8.768;2023-04-23T03:13:57;11.50;92.30
38265;DHT22;24062;47.480;8.768;2023-04-23T03:16:26;11.50;92.30
38265;DHT22;24062;47.480;8.768;2023-04-23T03:18:53;11.40;92.20
38265;DHT22;24062;47.480;8.768;2023-04-23T03:21:20;11.40;92.30
38265;DHT22;24062;47.480;8.768;2023-04-23T03:23:49;11.30;92.50
38265;DHT22;24062;47.480;8.768;2023-04-23T03:26:16;11.40;92.80
38265;DHT22;24062;47.480;8.768;2023-04-23T03:28:43;11.30;92.80
38265;DHT22;24062;47.480;8.768;2023-04-23T03:31:10;11.40;92.90
38265;DHT22;24062;47.480;8.768;2023-04-23T03:33:37;11.40;92.90
38265;DHT22;24062;47.480;8.768;2023-04-23T03:36:04;11.50;92.80
38265;DHT22;24062;47.480;8.768;2023-04-23T03:38:31;11.40;92.70
38265;DHT22;24062;47.480;8.768;2023-04-23T03:40:59;11.50;92.70
38265;DHT22;24062;47.480;8.768;2023-04-23T03:43:26;11.50;92.70
38265;DHT22;24062;47.480;8.768;2023-04-23T03:45:53;11.50;92.70
38265;DHT22;24062;47.480;8.768;2023-04-23T03:48:20;11.40;92.90
38265;DHT22;24062;47.480;8.768;2023-04-23T03:50:47;11.40;92.90
38265;DHT22;24062;47.480;8.768;2023-04-23T03:53:14;11.40;92.90
38265;DHT22;24062;47.480;8.768;2023-04-23T03:55:42;11.30;93.00
38265;DHT22;24062;47.480;8.768;2023-04-23T03:58:10;11.30;93.20
38265;DHT22;24062;47.480;8.768;2023-04-23T04:00:37;11.40;93.30
38265;DHT22;24062;47.480;8.768;2023-04-23T04:03:04;11.30;93.40
38265;DHT22;24062;47.480;8.768;2023-04-23T04:05:32;11.30;93.40
38265;DHT22;24062;47.480;8.768;2023-04-23T04:08:00;11.20;93.50
38265;DHT22;24062;47.480;8.768;2023-04-23T04:10:27;11.20;93.80
38265;DHT22;24062;47.480;8.768;2023-04-23T04:12:54;11.20;93.90
38265;DHT22;24062;47.480;8.768;2023-04-23T04:15:22;11.20;94.00
38265;DHT22;24062;47.480;8.768;2023-04-23T04:17:49;11.30;94.10
38265;DHT22;24062;47.480;8.768;2023-04-23T04:20:16;11.30;94.10
38265;DHT22;24062;47.480;8.768;2023-04-23T04:22:44;11.30;94.20
38265;DHT22;24062;47.480;8.768;2023-04-23T04:25:11;11.30;94.30
38265;DHT22;24062;47.480;8.768;2023-04-23T04:27:38;11.30;94.40
38265;DHT22;24062;47.480;8.768;2023-04-23T04:30:07;11.30;94.60
38265;DHT22;24062;47.480;8.768;2023-04-23T04:32:35;11.30;94.70
38265;DHT22;24062;47.480;8.768;2023-04-23T04:35:04;11.30;94.50
38265;DHT22;24062;47.480;8.768;2023-04-23T04:37:31;11.10;94.60
38265;DHT22;24062;47.480;8.768;2023-04-23T04:39:58;11.10;94.60
38265;DHT22;24062;47.480;8.768;2023-04-23T04:42:26;11.00;95.00
38265;DHT22;24062;47.480;8.768;2023-04-23T04:44:52;11.10;95.30
38265;DHT22;24062;47.480;8.768;2023-04-23T04:47:22;11.10;95.10
38265;DHT22;24062;47.480;8.768;2023-04-23T04:49:51;11.00;95.30
38265;DHT22;24062;47.480;8.768;2023-04-23T04:52:21;11.00;95.30
38265;DHT22;24062;47.480;8.768;2023-04-23T04:54:48;11.00;95.70
38265;DHT22;24062;47.480;8.768;2023-04-23T04:57:15;11.00;95.90
38265;DHT22;24062;47.480;8.768;2023-04-23T04:59:43;11.10;96.00
38265;DHT22;24062;47.480;8.768;2023-04-23T05:02:10;11.30;96.60
38265;DHT22;24062;47.480;8.768;2023-04-23T05:04:37;11.40;96.20
38265;DHT22;24062;47.480;8.768;2023-04-23T05:07:05;11.40;95.90
38265;DHT22;24062;47.480;8.768;2023-04-23T05:09:32;11.40;95.90
38265;DHT22;24062;47.480;8.768;2023-04-23T05:11:59;11.40;96.20
38265;DHT22;24062;47.480;8.768;2023-04-23T05:14:27;11.50;96.30
38265;DHT22;24062;47.480;8.768;2023-04-23T05:16:54;11.50;96.40
38265;DHT22;24062;47.480;8.768;2023-04-23T05:19:21;11.60;96.40
38265;DHT22;24062;47.480;8.768;2023-04-23T05:21:48;11.70;96.50
38265;DHT22;24062;47.480;8.768;2023-04-23T05:24:16;11.70;96.30
38265;DHT22;24062;47.480;8.768;2023-04-23T05:26:43;11.80;96.50
38265;DHT22;24062;47.480;8.768;2023-04-23T05:29:10;11.80;96.50
38265;DHT22;24062;47.480;8.768;2023-04-23T05:31:42;11.80;96.60
38265;DHT22;24062;47.480;8.768;2023-04-23T05:34:09;11.90;96.60
38265;DHT22;24062;47.480;8.768;2023-04-23T05:36:36;12.00;96.60
38265;DHT22;24062;47.480;8.768;2023-04-23T05:39:03;12.00;95.90
38265;DHT22;24062;47.480;8.768;2023-04-23T05:41:31;11.80;96.40
38265;DHT22;24062;47.480;8.768;2023-04-23T05:43:58;11.70;96.00
38265;DHT22;24062;47.480;8.768;2023-04-23T05:46:25;11.60;96.30
38265;DHT22;24062;47.480;8.768;2023-04-23T05:48:52;11.60;97.20
38265;DHT22;24062;47.480;8.768;2023-04-23T05:51:19;11.70;97.60
38265;DHT22;24062;47.480;8.768;2023-04-23T05:53:46;11.80;97.50
38265;DHT22;24062;47.480;8.768;2023-04-23T05:56:13;11.80;97.60
38265;DHT22;24062;47.480;8.768;2023-04-23T05:58:42;12.00;98.00
38265;DHT22;24062;47.480;8.768;2023-04-23T06:01:09;12.10;97.90
38265;DHT22;24062;47.480;8.768;2023-04-23T06:03:36;12.20;97.60
38265;DHT22;24062;47.480;8.768;2023-04-23T06:06:06;12.20;97.50
38265;DHT22;24062;47.480;8.768;2023-04-23T06:08:33;12.40;97.40
38265;DHT22;24062;47.480;8.768;2023-04-23T06:11:00;12.40;97.30
38265;DHT22;24062;47.480;8.768;2023-04-23T06:13:27;12.50;97.50
38265;DHT22;24062;47.480;8.768;2023-04-23T06:15:56;12.60;97.40
38265;DHT22;24062;47.480;8.768;2023-04-23T06:18:24;12.70;97.90
38265;DHT22;24062;47.480;8.768;2023-04-23T06:20:52;12.80;97.30
38265;DHT22;24062;47.480;8.768;2023-04-23T06:23:21;12.80;96.90
38265;DHT22;24062;47.480;8.768;2023-04-23T06:25:48;12.80;97.00
38265;DHT22;24062;47.480;8.768;2023-04-23T06:28:15;12.90;97.20
38265;DHT22;24062;47.480;8.768;2023-04-23T06:30:42;12.90;96.80
38265;DHT22;24062;47.480;8.768;2023-04-23T06:33:11;12.80;96.20
38265;DHT22;24062;47.480;8.768;2023-04-23T06:35:38;12.70;96.20
38265;DHT22;24062;47.480;8.768;2023-04-23T06:38:05;12.80;96.90
38265;DHT22;24062;47.480;8.768;2023-04-23T06:40:32;12.80;97.10
38265;DHT22;24062;47.480;8.768;2023-04-23T06:42:59;12.90;97.00
38265;DHT22;24062;47.480;8.768;2023-04-23T06:45:29;13.00;97.00
38265;DHT22;24062;47.480;8.768;2023-04-23T06:47:56;13.10;97.30
38265;DHT22;24062;47.480;8.768;2023-04-23T06:50:24;13.30;96.60
38265;DHT22;24062;47.480;8.768;2023-04-23T06:52:52;13.30;96.60
38265;DHT22;24062;47.480;8.768;2023-04-23T06:55:20;13.40;96.90
38265;DHT22;24062;47.480;8.768;2023-04-23T06:57:50;13.50;96.70
38265;DHT22;24062;47.480;8.768;2023-04-23T07:00:18;13.60;96.30
38265;DHT22;24062;47.480;8.768;2023-04-23T07:02:45;13.80;96.60
38265;DHT22;24062;47.480;8.768;2023-04-23T07:05:12;13.90;95.70
38265;DHT22;24062;47.480;8.768;2023-04-23T07:07:41;14.00;95.80
38265;DHT22;24062;47.480;8.768;2023-04-23T07:10:09;14.20;95.50
38265;DHT22;24062;47.480;8.768;2023-04-23T07:12:37;14.20;94.50
38265;DHT22;24062;47.480;8.768;2023-04-23T07:15:05;14.20;95.10
38265;DHT22;24062;47.480;8.768;2023-04-23T07:17:33;14.40;95.10
38265;DHT22;24062;47.480;8.768;2023-04-23T07:20:00;14.60;94.60
38265;DHT22;24062;47.480;8.768;2023-04-23T07:22:31;14.70;94.70
38265;DHT22;24062;47.480;8.768;2023-04-23T07:25:00;15.00;95.00
38265;DHT22;24062;47.480;8.768;2023-04-23T07:27:27;15.10;94.40
38265;DHT22;24062;47.480;8.768;2023-04-23T07:29:54;15.00;93.70
38265;DHT22;24062;47.480;8.768;2023-04-23T07:32:21;15.00;93.60
38265;DHT22;24062;47.480;8.768;2023-04-23T07:34:52;15.20;93.80
38265;DHT22;24062;47.480;8.768;2023-04-23T07:37:20;15.50;94.20
38265;DHT22;24062;47.480;8.768;2023-04-23T07:39:47;15.70;92.40
38265;DHT22;24062;47.480;8.768;2023-04-23T07:42:16;15.90;93.30
38265;DHT22;24062;47.480;8.768;2023-04-23T07:44:43;16.20;92.00
38265;DHT22;24062;47.480;8.768;2023-04-23T07:47:10;16.30;90.90
38265;DHT22;24062;47.480;8.768;2023-04-23T07:49:37;16.50;91.90
38265;DHT22;24062;47.480;8.768;2023-04-23T07:52:04;16.80;91.40
38265;DHT22;24062;47.480;8.768;2023-04-23T07:54:31;16.90;90.40
38265;DHT22;24062;47.480;8.768;2023-04-23T07:56:58;16.90;88.20
38265;DHT22;24062;47.480;8.768;2023-04-23T07:59:27;16.70;86.90
38265;DHT22;24062;47.480;8.768;2023-04-23T08:01:54;16.60;87.00
38265;DHT22;24062;47.480;8.768;2023-04-23T08:04:21;16.70;87.60
38265;DHT22;24062;47.480;8.768;2023-04-23T08:06:47;16.70;86.40
38265;DHT22;24062;47.480;8.768;2023-04-23T08:09:14;16.80;84.70
38265;DHT22;24062;47.480;8.768;2023-04-23T08:11:41;16.70;84.10
38265;DHT22;24062;47.480;8.768;2023-04-23T08:14:09;16.60;83.30
38265;DHT22;24062;47.480;8.768;2023-04-23T08:16:37;16.60;84.00
38265;DHT22;24062;47.480;8.768;2023-04-23T08:19:04;16.70;85.30
38265;DHT22;24062;47.480;8.768;2023-04-23T08:21:31;16.90;83.60
38265;DHT22;24062;47.480;8.768;2023-04-23T08:23:58;17.00;84.30
38265;DHT22;24062;47.480;8.768;2023-04-23T08:26:27;17.10;83.50
38265;DHT22;24062;47.480;8.768;2023-04-23T08:28:54;17.20;84.00
38265;DHT22;24062;47.480;8.768;2023-04-23T08:31:21;17.40;83.10
38265;DHT22;24062;47.480;8.768;2023-04-23T08:33:50;17.40;80.80
38265;DHT22;24062;47.480;8.768;2023-04-23T08:36:17;17.30;81.60
38265;DHT22;24062;47.480;8.768;2023-04-23T08:38:43;17.60;81.70
38265;DHT22;24062;47.480;8.768;2023-04-23T08:41:13;17.80;78.90
38265;DHT22;24062;47.480;8.768;2023-04-23T08:43:45;17.80;80.70
38265;DHT22;24062;47.480;8.768;2023-04-23T08:46:13;18.00;79.10
38265;DHT22;24062;47.480;8.768;2023-04-23T08:48:41;18.10;76.60
38265;DHT22;24062;47.480;8.768;2023-04-23T08:51:14;17.90;75.70
38265;DHT22;24062;47.480;8.768;2023-04-23T08:53:43;17.60;74.80
38265;DHT22;24062;47.480;8.768;2023-04-23T08:56:12;17.70;77.40
38265;DHT22;24062;47.480;8.768;2023-04-23T08:58:41;18.00;78.30
38265;DHT22;24062;47.480;8.768;2023-04-23T09:01:09;18.00;72.40
38265;DHT22;24062;47.480;8.768;2023-04-23T09:03:37;17.70;72.90
38265;DHT22;24062;47.480;8.768;2023-04-23T09:06:05;17.50;72.70
38265;DHT22;24062;47.480;8.768;2023-04-23T09:08:33;17.60;74.50
38265;DHT22;24062;47.480;8.768;2023-04-23T09:11:01;17.90;73.00
38265;DHT22;24062;47.480;8.768;2023-04-23T09:13:29;18.00;72.30
38265;DHT22;24062;47.480;8.768;2023-04-23T09:15:57;18.10;71.70
38265;DHT22;24062;47.480;8.768;2023-04-23T09:18:24;18.10;70.00
38265;DHT22;24062;47.480;8.768;2023-04-23T09:20:51;18.10;71.90
38265;DHT22;24062;47.480;8.768;2023-04-23T09:23:20;18.10;70.50
38265;DHT22;24062;47.480;8.768;2023-04-23T09:25:49;18.00;69.20
38265;DHT22;24062;47.480;8.768;2023-04-23T09:28:17;17.90;69.90
38265;DHT22;24062;47.480;8.768;2023-04-23T09:30:44;18.00;70.20
38265;DHT22;24062;47.480;8.768;2023-04-23T09:33:12;18.10;68.40
38265;DHT22;24062;47.480;8.768;2023-04-23T09:35:40;18.20;69.80
38265;DHT22;24062;47.480;8.768;2023-04-23T09:38:08;18.40;70.60
38265;DHT22;24062;47.480;8.768;2023-04-23T09:40:35;18.70;69.50
38265;DHT22;24062;47.480;8.768;2023-04-23T09:43:05;18.70;68.60
38265;DHT22;24062;47.480;8.768;2023-04-23T09:45:32;18.90;68.40
38265;DHT22;24062;47.480;8.768;2023-04-23T09:48:01;19.00;68.90
38265;DHT22;24062;47.480;8.768;2023-04-23T09:50:32;18.90;65.70
38265;DHT22;24062;47.480;8.768;2023-04-23T09:52:59;18.60;65.20
38265;DHT22;24062;47.480;8.768;2023-04-23T09:55:28;18.60;66.60
38265;DHT22;24062;47.480;8.768;2023-04-23T09:57:56;18.80;67.30
38265;DHT22;24062;47.480;8.768;2023-04-23T10:00:25;19.00;66.50
38265;DHT22;24062;47.480;8.768;2023-04-23T10:02:55;19.40;67.30
38265;DHT22;24062;47.480;8.768;2023-04-23T10:05:22;19.60;67.20
38265;DHT22;24062;47.480;8.768;2023-04-23T10:07:50;20.00;65.70
38265;DHT22;24062;47.480;8.768;2023-04-23T10:10:18;20.30;66.20
38265;DHT22;24062;47.480;8.768;2023-04-23T10:12:46;20.60;66.50
38265;DHT22;24062;47.480;8.768;2023-04-23T10:15:13;20.60;63.30
38265;DHT22;24062;47.480;8.768;2023-04-23T10:17:42;20.50;64.30
38265;DHT22;24062;47.480;8.768;2023-04-23T10:20:09;20.60;64.40
38265;DHT22;24062;47.480;8.768;2023-04-23T10:22:38;20.70;62.10
38265;DHT22;24062;47.480;8.768;2023-04-23T10:25:09;20.60;62.60
38265;DHT22;24062;47.480;8.768;2023-04-23T10:27:38;20.80;64.00
38265;DHT22;24062;47.480;8.768;2023-04-23T10:30:07;21.20;64.20
38265;DHT22;24062;47.480;8.768;2023-04-23T10:32:34;21.40;63.70
38265;DHT22;24062;47.480;8.768;2023-04-23T10:35:03;21.40;59.80
38265;DHT22;24062;47.480;8.768;2023-04-23T10:37:31;21.10;61.20
38265;DHT22;24062;47.480;8.768;2023-04-23T10:40:05;21.00;60.20
38265;DHT22;24062;47.480;8.768;2023-04-23T10:42:36;21.10;61.30
38265;DHT22;24062;47.480;8.768;2023-04-23T10:45:12;21.40;63.30
38265;DHT22;24062;47.480;8.768;2023-04-23T10:47:41;21.70;60.80
38265;DHT22;24062;47.480;8.768;2023-04-23T10:50:22;21.70;60.10
38265;DHT22;24062;47.480;8.768;2023-04-23T10:52:49;21.60;58.70
38265;DHT22;24062;47.480;8.768;2023-04-23T10:55:29;21.10;58.20
38265;DHT22;24062;47.480;8.768;2023-04-23T10:57:58;21.10;59.60
38265;DHT22;24062;47.480;8.768;2023-04-23T11:00:26;21.40;60.00
38265;DHT22;24062;47.480;8.768;2023-04-23T11:02:53;21.40;58.50
38265;DHT22;24062;47.480;8.768;2023-04-23T11:05:22;21.00;57.60
38265;DHT22;24062;47.480;8.768;2023-04-23T11:08:04;20.60;56.90
38265;DHT22;24062;47.480;8.768;2023-04-23T11:10:32;20.10;57.20
38265;DHT22;24062;47.480;8.768;2023-04-23T11:13:21;20.00;58.00
38265;DHT22;24062;47.480;8.768;2023-04-23T11:15:48;20.40;59.10
38265;DHT22;24062;47.480;8.768;2023-04-23T11:19:00;20.90;59.20
38265;DHT22;24062;47.480;8.768;2023-04-23T11:22:01;21.30;59.30
38265;DHT22;24062;47.480;8.768;2023-04-23T11:24:29;21.60;57.60
38265;DHT22;24062;47.480;8.768;2023-04-23T11:26:56;21.60;57.50
38265;DHT22;24062;47.480;8.768;2023-04-23T11:29:25;21.50;58.40
38265;DHT22;24062;47.480;8.768;2023-04-23T11:31:53;21.60;58.20
38265;DHT22;24062;47.480;8.768;2023-04-23T11:34:21;21.40;58.40
38265;DHT22;24062;47.480;8.768;2023-04-23T11:36:51;21.60;58.70
38265;DHT22;24062;47.480;8.768;2023-04-23T11:39:20;21.80;58.60
38265;DHT22;24062;47.480;8.768;2023-04-23T11:41:48;21.80;57.70
38265;DHT22;24062;47.480;8.768;2023-04-23T11:44:17;21.30;56.90
38265;DHT22;24062;47.480;8.768;2023-04-23T11:46:45;20.80;57.50
38265;DHT22;24062;47.480;8.768;2023-04-23T11:49:13;20.60;57.90
38265;DHT22;24062;47.480;8.768;2023-04-23T11:51:41;20.30;58.20
38265;DHT22;24062;47.480;8.768;2023-04-23T11:54:09;20.40;58.70
38265;DHT22;24062;47.480;8.768;2023-04-23T11:56:41;20.70;58.70
38265;DHT22;24062;47.480;8.768;2023-04-23T11:59:08;21.10;58.80
38265;DHT22;24062;47.480;8.768;2023-04-23T12:01:42;21.50;57.90
38265;DHT22;24062;47.480;8.768;2023-04-23T12:04:14;21.60;57.10
38265;DHT22;24062;47.480;8.768;2023-04-23T12:06:42;21.80;57.30
38265;DHT22;24062;47.480;8.768;2023-04-23T12:09:10;21.80;58.20
38265;DHT22;24062;47.480;8.768;2023-04-23T12:11:40;22.20;58.90
38265;DHT22;24062;47.480;8.768;2023-04-23T12:14:07;22.70;58.60
38265;DHT22;24062;47.480;8.768;2023-04-23T12:16:40;22.90;57.10
38265;DHT22;24062;47.480;8.768;2023-04-23T12:19:07;22.90;56.90
38265;DHT22;24062;47.480;8.768;2023-04-23T12:21:46;23.00;57.10
38265;DHT22;24062;47.480;8.768;2023-04-23T12:24:13;23.10;66.00
38265;DHT22;24062;47.480;8.768;2023-04-23T12:26:42;23.30;56.40
38265;DHT22;24062;47.480;8.768;2023-04-23T12:29:11;23.10;55.80
38265;DHT22;24062;47.480;8.768;2023-04-23T12:31:39;23.30;57.00
38265;DHT22;24062;47.480;8.768;2023-04-23T12:34:06;23.50;55.80
38265;DHT22;24062;47.480;8.768;2023-04-23T12:36:35;23.40;55.70
38265;DHT22;24062;47.480;8.768;2023-04-23T12:39:22;23.40;55.10
38265;DHT22;24062;47.480;8.768;2023-04-23T12:41:52;23.00;53.90
38265;DHT22;24062;47.480;8.768;2023-04-23T12:44:20;22.80;54.30
38265;DHT22;24062;47.480;8.768;2023-04-23T12:46:54;22.60;54.40
38265;DHT22;24062;47.480;8.768;2023-04-23T12:49:21;22.80;55.20
38265;DHT22;24062;47.480;8.768;2023-04-23T12:51:48;22.80;54.40
38265;DHT22;24062;47.480;8.768;2023-04-23T12:54:15;23.00;54.20
38265;DHT22;24062;47.480;8.768;2023-04-23T12:56:42;23.00;54.10
38265;DHT22;24062;47.480;8.768;2023-04-23T12:59:10;22.90;54.40
38265;DHT22;24062;47.480;8.768;2023-04-23T13:01:37;23.30;55.80
38265;DHT22;24062;47.480;8.768;2023-04-23T13:04:04;23.80;55.00
38265;DHT22;24062;47.480;8.768;2023-04-23T13:06:31;24.10;55.00
38265;DHT22;24062;47.480;8.768;2023-04-23T13:08:58;24.20;54.00
38265;DHT22;24062;47.480;8.768;2023-04-23T13:11:28;24.20;53.50
38265;DHT22;24062;47.480;8.768;2023-04-23T13:13:55;24.20;53.70
38265;DHT22;24062;47.480;8.768;2023-04-23T13:16:23;24.30;53.50
38265;DHT22;24062;47.480;8.768;2023-04-23T13:18:50;24.60;53.20
38265;DHT22;24062;47.480;8.768;2023-04-23T13:21:17;24.90;52.70
38265;DHT22;24062;47.480;8.768;2023-04-23T13:23:44;25.30;52.40
38265;DHT22;24062;47.480;8.768;2023-04-23T13:26:11;25.20;51.70
38265;DHT22;24062;47.480;8.768;2023-04-23T13:28:38;24.70;49.90
38265;DHT22;24062;47.480;8.768;2023-04-23T13:31:05;24.00;50.60
38265;DHT22;24062;47.480;8.768;2023-04-23T13:33:34;23.80;50.20
38265;DHT22;24062;47.480;8.768;2023-04-23T13:36:01;23.60;51.50
38265;DHT22;24062;47.480;8.768;2023-04-23T13:38:29;23.50;50.90
38265;DHT22;24062;47.480;8.768;2023-04-23T13:40:56;23.10;50.80
38265;DHT22;24062;47.480;8.768;2023-04-23T13:43:23;22.90;50.90
38265;DHT22;24062;47.480;8.768;2023-04-23T13:45:50;22.40;50.50
38265;DHT22;24062;47.480;8.768;2023-04-23T13:48:18;21.80;50.40
38265;DHT22;24062;47.480;8.768;2023-04-23T13:50:46;21.20;51.80
38265;DHT22;24062;47.480;8.768;2023-04-23T13:53:13;20.70;53.70
38265;DHT22;24062;47.480;8.768;2023-04-23T13:55:40;20.20;55.20
38265;DHT22;24062;47.480;8.768;2023-04-23T13:58:07;20.00;56.10
38265;DHT22;24062;47.480;8.768;2023-04-23T14:00:34;20.10;57.80
38265;DHT22;24062;47.480;8.768;2023-04-23T14:03:01;20.20;59.00
38265;DHT22;24062;47.480;8.768;2023-04-23T14:05:28;20.20;59.00
38265;DHT22;24062;47.480;8.768;2023-04-23T14:07:57;20.20;59.80
38265;DHT22;24062;47.480;8.768;2023-04-23T14:10:24;19.90;59.60
38265;DHT22;24062;47.480;8.768;2023-04-23T14:12:51;19.90;61.00
38265;DHT22;24062;47.480;8.768;2023-04-23T14:15:19;20.10;61.60
38265;DHT22;24062;47.480;8.768;2023-04-23T14:17:46;20.20;61.00
38265;DHT22;24062;47.480;8.768;2023-04-23T14:20:13;20.30;61.60
38265;DHT22;24062;47.480;8.768;2023-04-23T14:22:40;20.40;61.50
38265;DHT22;24062;47.480;8.768;2023-04-23T14:25:13;20.30;60.60
38265;DHT22;24062;47.480;8.768;2023-04-23T14:27:45;20.10;60.10
38265;DHT22;24062;47.480;8.768;2023-04-23T14:30:18;20.00;60.90
38265;DHT22;24062;47.480;8.768;2023-04-23T14:32:45;20.10;62.20
38265;DHT22;24062;47.480;8.768;2023-04-23T14:35:13;20.20;61.80
38265;DHT22;24062;47.480;8.768;2023-04-23T14:37:40;19.90;61.60
38265;DHT22;24062;47.480;8.768;2023-04-23T14:40:12;19.50;61.00
38265;DHT22;24062;47.480;8.768;2023-04-23T14:42:44;19.10;61.60
38265;DHT22;24062;47.480;8.768;2023-04-23T14:45:11;18.80;63.00
38265;DHT22;24062;47.480;8.768;2023-04-23T14:47:38;18.40;65.20
38265;DHT22;24062;47.480;8.768;2023-04-23T14:50:09;18.10;65.60
38265;DHT22;24062;47.480;8.768;2023-04-23T14:52:36;17.70;66.00
38265;DHT22;24062;47.480;8.768;2023-04-23T14:55:03;17.60;67.00
38265;DHT22;24062;47.480;8.768;2023-04-23T14:57:32;17.40;67.20
38265;DHT22;24062;47.480;8.768;2023-04-23T14:59:59;17.00;68.10
38265;DHT22;24062;47.480;8.768;2023-04-23T15:02:26;16.50;69.70
38265;DHT22;24062;47.480;8.768;2023-04-23T15:04:53;15.90;69.90
38265;DHT22;24062;47.480;8.768;2023-04-23T15:07:20;15.30;70.40
38265;DHT22;24062;47.480;8.768;2023-04-23T15:09:47;15.10;71.20
38265;DHT22;24062;47.480;8.768;2023-04-23T15:15:26;15.20;73.60
38265;DHT22;24062;47.480;8.768;2023-04-23T15:17:53;15.30;74.00
38265;DHT22;24062;47.480;8.768;2023-04-23T15:20:20;15.20;73.60
38265;DHT22;24062;47.480;8.768;2023-04-23T15:22:47;15.10;72.70
38265;DHT22;24062;47.480;8.768;2023-04-23T15:25:14;15.10;73.00
38265;DHT22;24062;47.480;8.768;2023-04-23T15:27:42;15.10;73.20
38265;DHT22;24062;47.480;8.768;2023-04-23T15:30:10;14.80;73.10
38265;DHT22;24062;47.480;8.768;2023-04-23T15:32:38;14.70;73.60
38265;DHT22;24062;47.480;8.768;2023-04-23T15:35:06;14.60;73.70
38265;DHT22;24062;47.480;8.768;2023-04-23T15:37:33;14.60;74.20
38265;DHT22;24062;47.480;8.768;2023-04-23T15:40:00;14.70;74.90